Time;durP1;ratioP1;P1;durP2;ratioP2;P2;SDS_P1;SDS_P2;PMS_P1;PMS_P2;Temp;Humidity;BMP_temperature;BMP_pressure;BME280_temperature;BME280_humidity;BME280_pressure;Samples;Min_cycle;Max_cycle;Signal;HPM_P1;HPM_P2
2022/12/16 00:01:14;;;;;;;52.78;23.92;;;;;;;6.10;100.00;94777.22;4922704;29;20083;-45
2022/12/16 00:03:47;;;;;;;49.00;23.35;;;;;;;5.96;100.00;94798.75;4926354;29;20095;-44
2022/12/16 00:06:15;;;;;;;50.42;25.77;;;;;;;6.06;100.00;94784.56;4928397;29;20105;-48
2022/12/16 00:08:44;;;;;;;48.70;24.67;;;;;;;6.24;100.00;94794.09;4926362;29;20109;-42
2022/12/16 00:11:12;;;;;;;47.65;24.60;;;;;;;6.65;100.00;94787.97;4927506;29;20106;-44
2022/12/16 00:13:41;;;;;;;50.45;24.48;;;;;;;6.17;100.00;94794.75;4925872;29;20083;-40
2022/12/16 00:16:11;;;;;;;41.78;20.90;;;;;;;5.94;100.00;94793.66;4927686;29;20095;-42
2022/12/16 00:18:41;;;;;;;47.20;24.42;;;;;;;6.12;100.00;94793.56;4921780;29;20563;-41
2022/12/16 00:21:10;;;;;;;46.55;24.63;;;;;;;6.48;100.00;94804.66;4926110;29;20122;-41
2022/12/16 00:23:40;;;;;;;54.33;26.88;;;;;;;6.52;100.00;94790.25;4929236;29;20476;-45
2022/12/16 00:26:09;;;;;;;48.75;25.35;;;;;;;6.54;100.00;94797.97;4928932;29;20090;-42
2022/12/16 00:28:37;;;;;;;51.63;26.95;;;;;;;6.61;100.00;94793.72;4928823;29;20071;-44
2022/12/16 00:31:06;;;;;;;48.40;26.02;;;;;;;6.69;100.00;94788.47;4928001;29;20484;-43
2022/12/16 00:33:34;;;;;;;46.65;25.05;;;;;;;6.79;100.00;94797.00;4927804;29;20105;-46
2022/12/16 00:36:05;;;;;;;49.00;25.98;;;;;;;6.85;100.00;94796.34;4927463;29;20087;-42
2022/12/16 00:38:34;;;;;;;50.15;27.45;;;;;;;6.90;100.00;94794.06;4926529;29;20090;-41
2022/12/16 00:41:02;;;;;;;50.63;26.73;;;;;;;6.77;100.00;94791.09;4929733;29;20079;-41
2022/12/16 00:43:30;;;;;;;52.30;26.40;;;;;;;6.61;100.00;94805.00;4926096;29;20094;-43
2022/12/16 00:45:59;;;;;;;47.72;26.67;;;;;;;6.38;100.00;94810.00;4923421;29;20517;-44
2022/12/16 00:48:28;;;;;;;36.17;19.35;;;;;;;6.30;100.00;94814.41;4929226;29;20532;-44
2022/12/16 00:50:56;;;;;;;50.47;24.05;;;;;;;6.31;100.00;94806.41;4923171;29;20075;-41
2022/12/16 00:53:26;;;;;;;50.17;24.63;;;;;;;6.20;100.00;94805.88;4924833;29;20087;-44
2022/12/16 00:56:01;;;;;;;53.67;27.08;;;;;;;6.46;100.00;94800.53;4920842;29;20113;-47
2022/12/16 00:58:30;;;;;;;53.97;25.85;;;;;;;6.39;100.00;94806.41;4926142;29;20094;-43
2022/12/16 01:00:58;;;;;;;50.80;27.38;;;;;;;6.49;100.00;94808.91;4922809;29;20132;-42
2022/12/16 01:03:27;;;;;;;50.72;26.95;;;;;;;6.44;100.00;94813.81;4925996;29;20492;-41
2022/12/16 01:05:55;;;;;;;50.00;26.60;;;;;;;6.23;100.00;94811.63;4924715;29;20094;-40
2022/12/16 01:08:23;;;;;;;50.60;26.77;;;;;;;6.28;100.00;94818.97;4922143;29;20079;-40
2022/12/16 01:10:54;;;;;;;52.38;26.63;;;;;;;6.38;100.00;94819.66;4924544;29;20126;-46
2022/12/16 01:13:24;;;;;;;49.50;25.13;;;;;;;6.44;100.00;94820.84;4926529;29;20075;-43
2022/12/16 01:15:53;;;;;;;49.17;26.63;;;;;;;6.35;100.00;94823.41;4928458;29;20098;-43
2022/12/16 01:18:21;;;;;;;50.85;25.77;;;;;;;6.51;100.00;94821.84;4929726;29;20506;-44
2022/12/16 01:20:50;;;;;;;46.85;25.27;;;;;;;6.39;100.00;94835.22;4922266;29;20044;-41
2022/12/16 01:23:18;;;;;;;34.63;18.02;;;;;;;6.13;100.00;94837.09;4923062;29;20079;-41
2022/12/16 01:25:51;;;;;;;47.28;25.58;;;;;;;6.24;100.00;94838.59;4925630;29;20102;-43
2022/12/16 01:28:20;;;;;;;45.90;24.80;;;;;;;6.32;100.00;94849.09;4922995;29;20838;-44
2022/12/16 01:30:48;;;;;;;43.85;24.52;;;;;;;6.40;100.00;94846.50;4920024;29;20086;-40
2022/12/16 01:33:17;;;;;;;47.15;24.63;;;;;;;6.56;100.00;94843.13;4920688;29;20102;-42
2022/12/16 01:35:46;;;;;;;46.03;24.67;;;;;;;6.53;100.00;94844.25;4925652;29;20080;-44
2022/12/16 01:38:23;;;;;;;46.03;23.40;;;;;;;6.54;100.00;94847.72;4928161;29;20090;-44
2022/12/16 01:40:51;;;;;;;48.63;24.35;;;;;;;6.36;100.00;94848.59;4926961;29;20068;-45
2022/12/16 01:43:25;;;;;;;45.67;24.58;;;;;;;6.39;100.00;94852.72;4923927;29;20086;-43
2022/12/16 01:45:56;;;;;;;47.22;24.00;;;;;;;6.26;100.00;94842.69;4925546;29;20094;-47
2022/12/16 01:48:33;;;;;;;40.20;20.58;;;;;;;5.48;100.00;94842.75;4926582;29;20492;-41
2022/12/16 01:51:05;;;;;;;29.55;16.73;;;;;;;5.38;100.00;94844.66;4919863;29;20091;-42
2022/12/16 01:53:34;;;;;;;37.28;21.35;;;;;;;5.74;100.00;94842.72;4920771;29;20087;-41
2022/12/16 01:56:03;;;;;;;39.20;21.80;;;;;;;5.63;100.00;94846.44;4926040;29;20117;-41
2022/12/16 01:58:35;;;;;;;42.17;24.40;;;;;;;5.95;100.00;94855.47;4929585;29;20510;-40
2022/12/16 02:01:03;;;;;;;28.95;16.95;;;;;;;5.76;100.00;94850.44;4923309;29;20106;-41
2022/12/16 02:03:35;;;;;;;43.13;23.73;;;;;;;5.58;100.00;94848.69;4923057;29;20087;-40
2022/12/16 02:06:06;;;;;;;42.70;24.00;;;;;;;5.85;100.00;94852.09;4928853;29;20114;-45
2022/12/16 02:08:35;;;;;;;43.75;22.95;;;;;;;5.62;100.00;94849.22;4917991;29;20083;-40
2022/12/16 02:11:11;;;;;;;43.40;22.42;;;;;;;5.89;100.00;94856.91;4919385;29;20094;-40
2022/12/16 02:13:57;;;;;;;43.10;23.30;;;;;;;5.64;100.00;94847.25;4922020;29;20088;-41
2022/12/16 02:16:32;;;;;;;36.03;18.35;;;;;;;5.33;100.00;94855.53;4923315;29;20094;-39
2022/12/16 02:19:07;;;;;;;38.88;19.92;;;;;;;5.20;100.00;94866.41;4922953;29;20087;-41
2022/12/16 02:21:53;;;;;;;33.15;18.08;;;;;;;5.18;100.00;94862.28;4921491;28;20082;-46
2022/12/16 02:24:37;;;;;;;31.77;16.40;;;;;;;5.36;100.00;94863.06;4923419;29;20087;-43
2022/12/16 02:27:44;;;;;;;34.78;18.20;;;;;;;5.24;100.00;94867.72;4922281;29;20071;-41
2022/12/16 02:30:28;;;;;;;40.83;23.38;;;;;;;5.38;100.00;94870.78;4922759;29;20577;-40
2022/12/16 02:33:02;;;;;;;63.03;29.25;;;;;;;5.26;100.00;94867.56;4925164;29;20075;-41
2022/12/16 02:35:35;;;;;;;45.95;19.23;;;;;;;5.37;100.00;94872.56;4919292;29;20075;-40
2022/12/16 02:38:13;;;;;;;40.42;20.92;;;;;;;5.40;100.00;94880.13;4923514;29;20088;-40
2022/12/16 02:40:44;;;;;;;34.67;19.13;;;;;;;5.41;100.00;94894.81;4926747;29;20079;-39
2022/12/16 02:43:18;;;;;;;41.58;21.52;;;;;;;5.40;100.00;94897.56;4923101;29;20087;-42
2022/12/16 02:45:49;;;;;;;41.28;21.67;;;;;;;5.36;100.00;94896.22;4922018;29;20087;-44
2022/12/16 02:48:17;;;;;;;43.20;22.95;;;;;;;5.43;100.00;94886.81;4923699;29;20483;-41
2022/12/16 02:50:47;;;;;;;45.45;24.23;;;;;;;5.46;100.00;94891.75;4923696;29;20083;-43
2022/12/16 02:53:15;;;;;;;38.95;20.90;;;;;;;5.18;100.00;94891.84;4918991;29;20095;-40
2022/12/16 02:55:53;;;;;;;37.10;20.10;;;;;;;5.34;100.00;94892.97;4920140;29;20090;-41
2022/12/16 02:58:27;;;;;;;24.73;13.15;;;;;;;5.35;100.00;94895.41;4919604;29;20094;-40
2022/12/16 03:01:04;;;;;;;60.03;27.92;;;;;;;5.47;100.00;94891.59;4922276;29;20084;-43
2022/12/16 03:03:36;;;;;;;40.35;19.60;;;;;;;5.54;100.00;94902.28;4927280;29;20090;-41
2022/12/16 03:06:05;;;;;;;45.40;23.88;;;;;;;5.71;100.00;94911.88;4924876;29;20094;-43
2022/12/16 03:08:36;;;;;;;49.35;24.80;;;;;;;5.64;100.00;94915.22;4926508;29;20089;-43
2022/12/16 03:11:07;;;;;;;49.58;24.40;;;;;;;5.69;100.00;94913.00;4925630;29;20090;-43
2022/12/16 03:13:39;;;;;;;42.13;22.02;;;;;;;5.56;100.00;94910.78;4928024;29;20083;-44
2022/12/16 03:16:11;;;;;;;48.17;24.75;;;;;;;5.44;100.00;94915.44;4924939;29;20087;-40
2022/12/16 03:18:42;;;;;;;44.08;22.60;;;;;;;5.51;100.00;94909.59;4928561;29;20508;-41
2022/12/16 03:21:11;;;;;;;41.75;21.45;;;;;;;5.39;100.00;94925.50;4928152;29;20087;-41
2022/12/16 03:23:43;;;;;;;49.13;25.75;;;;;;;5.47;100.00;94922.13;4922973;29;20759;-39
2022/12/16 03:26:15;;;;;;;37.00;18.70;;;;;;;5.24;100.00;94929.63;4926790;29;20075;-46
2022/12/16 03:28:49;;;;;;;29.48;16.10;;;;;;;4.95;100.00;94932.44;4923287;29;20080;-43
2022/12/16 03:31:28;;;;;;;42.08;21.38;;;;;;;5.02;100.00;94933.47;4929796;28;20090;-42
2022/12/16 03:33:59;;;;;;;46.03;23.10;;;;;;;4.98;100.00;94934.75;4925298;29;20102;-42
2022/12/16 03:36:29;;;;;;;45.85;22.75;;;;;;;4.88;100.00;94926.16;4922755;29;20102;-44
2022/12/16 03:39:00;;;;;;;32.17;16.58;;;;;;;4.73;100.00;94931.06;4926303;29;20095;-43
2022/12/16 03:41:28;;;;;;;;;;;;;;;4.89;100.00;94928.66;4922767;29;20098;-40
2022/12/16 03:43:56;;;;;;;47.28;23.35;;;;;;;5.30;100.00;94922.97;4920029;29;19980;-40
2022/12/16 03:46:26;;;;;;;47.05;21.70;;;;;;;5.05;100.00;94924.53;4927812;29;20091;-42
2022/12/16 03:48:55;;;;;;;54.42;26.33;;;;;;;5.10;100.00;94923.13;4926994;29;20113;-40
2022/12/16 03:51:23;;;;;;;48.55;25.42;;;;;;;4.78;100.00;94921.00;4928126;29;20086;-39
2022/12/16 03:53:51;;;;;;;48.13;25.70;;;;;;;4.84;100.00;94919.59;4931536;29;20071;-40
2022/12/16 03:56:19;;;;;;;51.72;27.65;;;;;;;5.16;100.00;94926.91;4929281;29;20083;-41
2022/12/16 03:58:48;;;;;;;58.90;29.60;;;;;;;5.09;100.00;94931.09;4924951;29;20090;-41
2022/12/16 04:01:16;;;;;;;49.53;26.05;;;;;;;4.96;100.00;94934.91;4927701;29;20109;-42
2022/12/16 04:03:46;;;;;;;50.08;25.85;;;;;;;4.94;100.00;94933.41;4928020;29;20079;-42
2022/12/16 04:06:17;;;;;;;50.80;26.83;;;;;;;5.02;100.00;94941.31;4925473;29;20656;-40
2022/12/16 04:08:45;;;;;;;54.58;27.75;;;;;;;5.12;100.00;94942.06;4927360;29;20075;-39
2022/12/16 04:25:14;;;;;;;54.63;25.13;;;;;;;5.19;100.00;94960.59;4928886;29;20080;-39
2022/12/16 04:27:45;;;;;;;58.30;26.77;;;;;;;5.21;100.00;94956.88;4923611;29;20554;-45
2022/12/16 04:30:21;;;;;;;25.85;13.35;;;;;;;4.89;100.00;94965.22;4919040;29;20079;-46
